createdAt,value
2022-08-22T00:02:26.317Z,19.49
2022-08-22T00:02:42.056Z,24.54
2022-08-22T00:03:12.734Z,19.32
2022-08-22T00:05:03.336Z,19.27
2022-08-22T00:07:45.304Z,19.26
2022-08-22T00:10:24.934Z,18.89
2022-08-22T00:13:03.234Z,18.96
2022-08-22T00:15:42.968Z,19.08
2022-08-22T00:18:16.152Z,19.06
2022-08-22T00:20:54.101Z,19.24
2022-08-22T00:23:28.898Z,19.30
2022-08-22T00:26:03.022Z,19.33
2022-08-22T00:28:37.015Z,19.34
2022-08-22T00:31:14.331Z,19.15
2022-08-22T00:33:49.849Z,19.01
2022-08-22T00:36:26.764Z,18.65
2022-08-22T00:39:07.303Z,18.67
2022-08-22T00:41:50.750Z,18.57
2022-08-22T00:44:43.032Z,18.79
2022-08-22T00:47:24.946Z,18.86
2022-08-22T00:50:27.269Z,18.93
2022-08-22T00:53:23.740Z,18.80
2022-08-22T00:56:04.836Z,18.30
2022-08-22T00:58:57.411Z,17.90
2022-08-22T01:01:32.617Z,17.84
2022-08-22T01:04:26.412Z,18.24
2022-08-22T01:07:09.230Z,18.58
2022-08-22T01:09:48.058Z,18.70
2022-08-22T01:12:31.696Z,18.65
2022-08-22T01:15:03.785Z,18.62
2022-08-22T01:17:58.147Z,18.34
2022-08-22T01:20:50.970Z,17.30
2022-08-22T01:24:05.818Z,16.96
2022-08-22T01:27:11.890Z,16.76
2022-08-22T01:30:16.383Z,16.50
2022-08-22T01:33:20.262Z,16.88
2022-08-22T01:36:25.321Z,17.45
2022-08-22T01:39:19.229Z,17.64
2022-08-22T01:42:20.215Z,17.90
2022-08-22T01:45:04.699Z,17.82
2022-08-22T01:47:39.325Z,17.40
2022-08-22T01:50:18.710Z,17.43
2022-08-22T01:52:51.619Z,17.70
2022-08-22T01:55:31.183Z,17.98
2022-08-22T01:58:04.917Z,18.08
2022-08-22T02:00:52.522Z,18.10
2022-08-22T02:03:26.172Z,17.64
2022-08-22T02:06:00.237Z,17.35
2022-08-22T02:08:39.036Z,17.19
2022-08-22T02:11:10.517Z,17.28
2022-08-22T02:13:54.297Z,16.70
2022-08-22T02:16:36.242Z,16.70
2022-08-22T02:19:12.771Z,16.79
2022-08-22T02:21:47.103Z,16.53
2022-08-22T02:24:25.959Z,16.71
2022-08-22T02:27:06.211Z,16.00
2022-08-22T02:29:41.613Z,16.21
2022-08-22T02:32:24.043Z,16.11
2022-08-22T02:35:06.243Z,16.24
2022-08-22T02:37:39.484Z,16.67
2022-08-22T02:40:17.861Z,16.95
2022-08-22T02:42:51.548Z,16.77
2022-08-22T02:45:38.981Z,16.73
2022-08-22T02:48:18.232Z,16.95
2022-08-22T02:50:54.328Z,17.13
2022-08-22T02:53:29.652Z,17.16
2022-08-22T02:56:04.173Z,17.29
2022-08-22T02:58:43.421Z,17.28
2022-08-22T03:01:23.296Z,17.24
2022-08-22T03:03:53.335Z,16.90
2022-08-22T03:06:38.106Z,16.86
2022-08-22T03:09:21.805Z,16.89
2022-08-22T03:12:06.185Z,16.61
2022-08-22T03:14:43.367Z,16.67
2022-08-22T03:17:16.198Z,16.77
2022-08-22T03:19:50.346Z,16.68
2022-08-22T03:22:24.044Z,15.84
2022-08-22T03:24:56.425Z,15.76
2022-08-22T03:27:32.624Z,16.33
2022-08-22T03:30:07.077Z,16.43
2022-08-22T03:32:51.220Z,16.47
2022-08-22T03:35:39.416Z,16.65
2022-08-22T03:38:18.894Z,16.53
2022-08-22T03:41:28.128Z,15.77
2022-08-22T03:44:13.470Z,16.15
2022-08-22T03:47:09.136Z,16.20
2022-08-22T03:50:14.746Z,16.34
2022-08-22T03:53:18.527Z,16.13
2022-08-22T03:56:24.043Z,16.25
2022-08-22T03:59:29.688Z,16.29
2022-08-22T04:02:24.744Z,15.91
2022-08-22T04:05:38.785Z,16.29
2022-08-22T04:08:50.438Z,16.45
2022-08-22T04:11:42.609Z,16.69
2022-08-22T04:14:28.841Z,16.62
2022-08-22T04:17:21.268Z,16.65
2022-08-22T04:20:27.619Z,16.69
2022-08-22T04:23:43.361Z,16.43
2022-08-22T04:26:16.482Z,16.41
2022-08-22T04:28:49.084Z,16.44
2022-08-22T04:31:23.433Z,16.44
2022-08-22T04:33:55.662Z,16.36
2022-08-22T04:36:30.372Z,16.42
2022-08-22T04:39:03.686Z,15.97
2022-08-22T04:41:37.579Z,15.75
2022-08-22T04:44:12.027Z,15.26
2022-08-22T04:46:49.045Z,15.38
2022-08-22T04:49:25.899Z,15.24
2022-08-22T04:52:04.178Z,14.90
2022-08-22T04:54:44.038Z,14.97
2022-08-22T04:57:27.054Z,14.73
2022-08-22T05:00:00.379Z,14.75
2022-08-22T05:02:29.771Z,15.61
2022-08-22T05:05:04.018Z,15.33
2022-08-22T05:07:36.491Z,15.04
2022-08-22T05:10:12.038Z,14.64
2022-08-22T05:12:44.693Z,14.87
2022-08-22T05:15:19.033Z,14.97
2022-08-22T05:17:57.298Z,15.46
2022-08-22T05:20:28.731Z,15.56
2022-08-22T05:22:59.438Z,15.52
2022-08-22T05:25:32.402Z,15.50
2022-08-22T05:28:08.546Z,15.75
2022-08-22T05:30:37.577Z,15.65
2022-08-22T05:33:17.603Z,15.59
2022-08-22T05:35:54.579Z,15.53
2022-08-22T05:38:31.001Z,15.40
2022-08-22T05:41:06.505Z,15.39
2022-08-22T05:43:40.628Z,15.88
2022-08-22T05:46:17.550Z,15.75
2022-08-22T05:48:54.179Z,15.59
2022-08-22T05:51:26.501Z,15.78
2022-08-22T05:54:08.254Z,15.94
2022-08-22T05:56:39.885Z,16.14
2022-08-22T05:59:23.137Z,16.86
2022-08-22T06:02:01.681Z,17.18
2022-08-22T06:04:36.864Z,17.65
2022-08-22T06:07:13.078Z,17.71
2022-08-22T06:10:02.871Z,17.72
2022-08-22T06:12:37.602Z,17.18
2022-08-22T06:15:12.826Z,17.75
2022-08-22T06:17:45.502Z,18.28
2022-08-22T06:20:21.384Z,18.51
2022-08-22T06:22:55.272Z,18.62
2022-08-22T06:25:32.719Z,18.70
2022-08-22T06:28:05.191Z,18.62
2022-08-22T06:30:35.151Z,18.57
2022-08-22T06:33:08.131Z,19.11
2022-08-22T06:36:03.032Z,19.32
2022-08-22T06:38:52.917Z,19.43
2022-08-22T06:41:27.550Z,19.61
2022-08-22T06:43:57.448Z,19.89
2022-08-22T06:46:29.828Z,20.05
2022-08-22T06:49:03.950Z,19.90
2022-08-22T06:51:35.795Z,19.37
2022-08-22T06:54:08.002Z,19.56
2022-08-22T06:56:41.088Z,19.98
2022-08-22T06:59:12.002Z,20.00
2022-08-22T07:01:45.295Z,20.09
2022-08-22T07:04:14.026Z,20.20
2022-08-22T07:06:47.269Z,20.39
2022-08-22T07:09:23.217Z,20.57
2022-08-22T07:11:52.987Z,20.83
2022-08-22T07:14:30.026Z,21.14
2022-08-22T07:17:00.482Z,21.24
2022-08-22T07:19:30.706Z,21.20
2022-08-22T07:22:11.000Z,21.37
2022-08-22T07:24:49.653Z,21.46
2022-08-22T07:27:32.960Z,21.51
2022-08-22T07:30:05.899Z,21.73
2022-08-22T07:32:57.810Z,22.07
2022-08-22T07:35:53.507Z,22.32
2022-08-22T07:38:33.634Z,22.61
2022-08-22T07:41:10.196Z,22.81
2022-08-22T07:43:44.499Z,23.34
2022-08-22T07:46:23.915Z,23.33
2022-08-22T07:49:08.591Z,23.11
2022-08-22T07:51:45.012Z,24.23
2022-08-22T07:54:17.614Z,24.49
2022-08-22T07:56:52.865Z,24.85
2022-08-22T07:59:23.150Z,24.65
2022-08-22T08:01:55.301Z,25.19
2022-08-22T08:04:30.042Z,25.48
2022-08-22T08:07:03.026Z,25.97
2022-08-22T08:09:35.045Z,26.15
2022-08-22T08:12:06.452Z,26.46
2022-08-22T08:14:38.063Z,26.32
2022-08-22T08:17:14.503Z,26.78
2022-08-22T08:19:44.228Z,26.89
2022-08-22T08:22:18.224Z,26.98
2022-08-22T08:24:49.253Z,27.35
2022-08-22T08:27:38.820Z,27.15
2022-08-22T08:30:15.394Z,27.90
2022-08-22T08:32:48.159Z,28.14
2022-08-22T08:35:25.478Z,27.91
2022-08-22T08:37:59.042Z,28.41
2022-08-22T08:40:55.178Z,28.29
2022-08-22T08:43:31.353Z,28.94
2022-08-22T08:46:26.254Z,28.20
2022-08-22T08:49:13.208Z,28.60
2022-08-22T08:52:04.664Z,29.81
2022-08-22T08:54:56.056Z,30.37
2022-08-22T08:57:38.584Z,30.12
2022-08-22T09:00:12.417Z,30.51
2022-08-22T09:03:09.567Z,31.19
2022-08-22T09:06:02.351Z,29.70
2022-08-22T09:09:09.031Z,30.54
2022-08-22T09:12:16.620Z,30.00
2022-08-22T09:15:26.280Z,30.94
2022-08-22T09:18:29.877Z,30.74
2022-08-22T09:21:31.180Z,30.39
2022-08-22T09:24:29.393Z,31.46
2022-08-22T09:27:01.206Z,31.31
2022-08-22T09:29:54.643Z,31.19
2022-08-22T09:32:37.471Z,31.18
2022-08-22T09:35:10.659Z,31.19
2022-08-22T09:37:51.702Z,31.26
2022-08-22T09:43:02.584Z,31.46
2022-08-22T09:45:50.110Z,31.32
2022-08-22T09:48:36.805Z,31.56
2022-08-22T09:51:31.771Z,30.26
2022-08-22T09:54:31.536Z,31.37
2022-08-22T09:57:19.454Z,31.99
2022-08-22T10:00:16.431Z,32.15
2022-08-22T10:02:58.777Z,31.55
2022-08-22T10:05:43.557Z,31.71
2022-08-22T10:08:20.908Z,31.30
2022-08-22T10:11:18.938Z,30.83
2022-08-22T10:14:01.276Z,31.78
2022-08-22T10:16:56.336Z,32.17
2022-08-22T10:19:29.639Z,32.55
2022-08-22T10:22:30.324Z,32.44
2022-08-22T10:25:09.218Z,32.62
2022-08-22T10:27:56.178Z,30.21
2022-08-22T10:30:28.466Z,32.42
2022-08-22T10:33:05.336Z,32.63
2022-08-22T10:35:39.001Z,33.08
2022-08-22T10:38:17.845Z,32.78
2022-08-22T10:40:53.870Z,33.35
2022-08-22T10:43:31.810Z,33.25
2022-08-22T10:46:06.667Z,33.17
2022-08-22T10:48:47.810Z,31.11
2022-08-22T10:51:21.419Z,31.16
2022-08-22T10:54:20.106Z,32.06
2022-08-22T10:56:56.070Z,33.50
2022-08-22T10:59:41.198Z,33.81
2022-08-22T11:02:34.884Z,33.59
2022-08-22T11:05:25.818Z,33.19
2022-08-22T11:08:06.343Z,33.30
2022-08-22T11:10:52.112Z,33.03
2022-08-22T11:13:39.593Z,32.67
2022-08-22T11:16:26.155Z,33.72
2022-08-22T11:19:15.346Z,33.64
2022-08-22T11:22:00.738Z,33.89
2022-08-22T11:25:05.015Z,32.60
2022-08-22T11:27:45.656Z,32.76
2022-08-22T11:30:19.273Z,32.96
2022-08-22T11:33:10.989Z,32.54
2022-08-22T11:35:46.171Z,33.24
2022-08-22T11:38:32.079Z,33.14
2022-08-22T11:41:05.154Z,32.51
2022-08-22T11:43:50.045Z,33.39
2022-08-22T11:46:29.346Z,32.65
2022-08-22T11:49:15.110Z,33.61
2022-08-22T11:52:00.266Z,33.82
2022-08-22T11:54:42.182Z,33.75
2022-08-22T11:57:18.783Z,32.94
2022-08-22T12:00:10.133Z,33.35
2022-08-22T12:02:48.647Z,33.18
2022-08-22T12:05:24.501Z,32.22
2022-08-22T12:08:02.374Z,31.90
2022-08-22T12:10:34.860Z,32.83
2022-08-22T12:13:09.209Z,33.97
2022-08-22T12:15:53.935Z,33.16
2022-08-22T12:18:44.982Z,32.94
2022-08-22T12:21:49.641Z,32.78
2022-08-22T12:24:33.378Z,33.33
2022-08-22T12:27:28.989Z,33.17
2022-08-22T12:30:14.237Z,32.51
2022-08-22T12:33:22.004Z,32.63
2022-08-22T12:36:17.911Z,33.54
2022-08-22T12:39:25.192Z,34.04
2022-08-22T12:42:23.937Z,33.99
2022-08-22T12:45:19.507Z,34.18
2022-08-22T12:48:00.960Z,34.80
2022-08-22T12:50:41.524Z,34.25
2022-08-22T12:53:58.809Z,32.78
2022-08-22T12:56:39.021Z,33.34
2022-08-22T12:59:27.270Z,33.34
2022-08-22T13:01:58.890Z,33.28
2022-08-22T13:04:33.018Z,32.84
2022-08-22T13:07:10.481Z,33.74
2022-08-22T13:09:49.376Z,32.38
2022-08-22T13:12:28.529Z,32.08
2022-08-22T13:15:02.951Z,32.35
2022-08-22T13:17:31.459Z,31.22
2022-08-22T13:20:10.793Z,32.07
2022-08-22T13:22:45.672Z,31.99
2022-08-22T13:25:26.103Z,33.05
2022-08-22T13:27:59.960Z,32.63
2022-08-22T13:30:33.752Z,32.61
2022-08-22T13:33:09.475Z,33.02
2022-08-22T13:35:44.689Z,33.13
2022-08-22T13:38:26.011Z,32.03
2022-08-22T13:40:57.839Z,32.32
2022-08-22T13:43:31.160Z,31.60
2022-08-22T13:46:02.485Z,31.44
2022-08-22T13:48:47.053Z,32.13
2022-08-22T13:51:24.730Z,32.47
2022-08-22T13:54:02.003Z,32.24
2022-08-22T13:56:47.243Z,32.24
2022-08-22T13:59:47.487Z,31.65
2022-08-22T14:02:19.729Z,31.95
2022-08-22T14:04:54.072Z,29.63
2022-08-22T14:07:33.398Z,30.71
2022-08-22T14:10:15.165Z,30.12
2022-08-22T14:13:07.995Z,29.55
2022-08-22T14:15:44.872Z,30.65
2022-08-22T14:18:18.513Z,30.51
2022-08-22T14:20:48.436Z,29.96
2022-08-22T14:23:26.919Z,30.92
2022-08-22T14:25:57.297Z,30.83
2022-08-22T14:28:31.544Z,31.03
2022-08-22T14:31:07.292Z,31.11
2022-08-22T14:33:40.864Z,31.34
2022-08-22T14:36:18.203Z,31.10
2022-08-22T14:38:51.824Z,31.33
2022-08-22T14:41:55.740Z,30.30
2022-08-22T14:44:26.831Z,31.11
2022-08-22T14:46:58.230Z,31.06
2022-08-22T14:49:35.416Z,31.10
2022-08-22T14:52:10.835Z,31.14
2022-08-22T14:54:48.655Z,31.38
2022-08-22T14:57:20.851Z,31.82
2022-08-22T14:59:54.252Z,31.86
2022-08-22T15:02:29.583Z,31.66
2022-08-22T15:05:02.213Z,31.94
2022-08-22T15:07:36.502Z,30.96
2022-08-22T15:10:11.856Z,30.44
2022-08-22T15:12:49.756Z,29.62
2022-08-22T15:15:32.549Z,29.96
2022-08-22T15:18:18.743Z,31.20
2022-08-22T15:20:52.160Z,30.96
2022-08-22T15:23:23.262Z,29.73
2022-08-22T15:26:03.689Z,29.29
2022-08-22T15:28:52.273Z,29.81
2022-08-22T15:31:23.484Z,30.21
2022-08-22T15:33:52.204Z,30.17
2022-08-22T15:36:22.810Z,30.12
2022-08-22T15:38:54.781Z,29.54
2022-08-22T15:41:39.801Z,29.71
2022-08-22T15:44:15.054Z,29.04
2022-08-22T15:47:23.739Z,29.80
2022-08-22T15:49:56.402Z,29.97
2022-08-22T15:52:29.968Z,28.69
2022-08-22T15:55:18.658Z,28.95
2022-08-22T15:58:04.472Z,29.14
2022-08-22T16:00:43.388Z,29.44
2022-08-22T16:03:26.991Z,28.33
2022-08-22T16:05:59.251Z,28.73
2022-08-22T16:08:33.259Z,28.75
2022-08-22T16:11:32.937Z,29.05
2022-08-22T16:14:22.201Z,29.36
2022-08-22T16:17:02.312Z,29.20
2022-08-22T16:19:32.880Z,28.64
2022-08-22T16:22:15.451Z,28.48
2022-08-22T16:25:00.159Z,28.78
2022-08-22T16:27:30.197Z,29.08
2022-08-22T16:30:15.275Z,28.76
2022-08-22T16:32:56.252Z,29.48
2022-08-22T16:36:03.777Z,29.48
2022-08-22T16:38:45.048Z,28.41
2022-08-22T16:41:42.857Z,28.58
2022-08-22T16:44:33.937Z,29.31
2022-08-22T16:47:14.952Z,29.39
2022-08-22T16:50:04.523Z,29.53
2022-08-22T16:52:58.338Z,29.30
2022-08-22T16:55:49.649Z,29.43
2022-08-22T16:58:59.237Z,29.46
2022-08-22T17:02:13.237Z,29.12
2022-08-22T17:04:53.449Z,28.96
2022-08-22T17:07:36.437Z,28.66
2022-08-22T17:10:33.441Z,28.11
2022-08-22T17:13:26.513Z,28.82
2022-08-22T17:16:07.330Z,28.83
2022-08-22T17:18:47.752Z,28.89
2022-08-22T17:21:25.918Z,28.73
2022-08-22T17:24:07.115Z,28.03
2022-08-22T17:26:54.286Z,28.57
2022-08-22T17:29:34.387Z,28.36
2022-08-22T17:32:16.802Z,27.86
2022-08-22T17:34:56.113Z,27.30
2022-08-22T17:37:41.876Z,27.49
2022-08-22T17:40:23.125Z,27.91
2022-08-22T17:43:04.845Z,27.95
2022-08-22T17:45:52.141Z,27.56
2022-08-22T17:48:26.061Z,27.51
2022-08-22T17:50:59.276Z,27.47
2022-08-22T17:53:35.115Z,27.54
2022-08-22T17:56:14.604Z,27.06
2022-08-22T17:58:50.838Z,26.65
2022-08-22T18:01:40.855Z,26.38
2022-08-22T18:04:20.284Z,26.25
2022-08-22T18:06:56.255Z,25.79
2022-08-22T18:09:36.451Z,25.93
2022-08-22T18:12:15.657Z,26.00
2022-08-22T18:14:51.378Z,26.26
2022-08-22T18:17:38.463Z,26.49
2022-08-22T18:20:13.089Z,26.58
2022-08-22T18:22:47.945Z,26.59
2022-08-22T18:25:34.124Z,26.77
2022-08-22T18:28:11.462Z,26.71
2022-08-22T18:30:51.971Z,26.37
2022-08-22T18:33:32.996Z,26.06
2022-08-22T18:36:09.200Z,26.10
2022-08-22T18:38:51.161Z,26.36
2022-08-22T18:41:27.758Z,26.09
2022-08-22T18:43:56.910Z,26.15
2022-08-22T18:46:45.500Z,26.09
2022-08-22T18:49:43.437Z,26.16
2022-08-22T18:52:35.728Z,26.29
2022-08-22T18:55:36.667Z,26.30
2022-08-22T18:58:41.732Z,25.57
2022-08-22T19:01:31.195Z,25.86
2022-08-22T19:04:41.658Z,25.80
2022-08-22T19:07:43.014Z,25.76
2022-08-22T19:10:31.939Z,25.85
2022-08-22T19:13:19.296Z,25.80
2022-08-22T19:16:01.166Z,25.09
2022-08-22T19:18:38.089Z,24.68
2022-08-22T19:21:50.689Z,25.00
2022-08-22T19:25:04.937Z,24.91
2022-08-22T19:27:40.921Z,23.96
2022-08-22T19:30:47.875Z,24.54
2022-08-22T19:33:27.649Z,24.67
2022-08-22T19:36:13.766Z,24.58
2022-08-22T19:38:56.934Z,24.20
2022-08-22T19:41:47.641Z,23.79
2022-08-22T19:44:35.972Z,23.93
2022-08-22T19:47:13.915Z,24.16
2022-08-22T19:49:49.919Z,24.18
2022-08-22T19:52:28.580Z,24.00
2022-08-22T19:55:16.330Z,24.07
2022-08-22T19:57:57.082Z,24.08
2022-08-22T20:00:49.262Z,23.24
2022-08-22T20:03:33.545Z,23.34
2022-08-22T20:06:22.005Z,23.65
2022-08-22T20:09:13.395Z,23.82
2022-08-22T20:11:49.579Z,23.63
2022-08-22T20:14:30.532Z,22.96
2022-08-22T20:17:09.048Z,23.23
2022-08-22T20:19:41.826Z,22.93
2022-08-22T20:22:16.321Z,22.46
2022-08-22T20:24:50.836Z,22.47
2022-08-22T20:27:25.232Z,22.62
2022-08-22T20:30:03.217Z,23.06
2022-08-22T20:32:37.921Z,22.68
2022-08-22T20:35:08.986Z,22.19
2022-08-22T20:38:05.217Z,22.12
2022-08-22T20:40:55.066Z,21.97
2022-08-22T20:43:34.472Z,22.44
2022-08-22T20:46:19.336Z,22.49
2022-08-22T20:48:52.392Z,22.43
2022-08-22T20:51:25.275Z,22.68
2022-08-22T20:53:56.874Z,22.78
2022-08-22T20:56:37.907Z,22.90
2022-08-22T20:59:23.426Z,22.30
2022-08-22T21:01:58.110Z,22.11
2022-08-22T21:04:29.350Z,22.50
2022-08-22T21:07:01.641Z,21.78
2022-08-22T21:09:48.325Z,22.12
2022-08-22T21:12:17.188Z,22.32
2022-08-22T21:14:47.323Z,22.54
2022-08-22T21:17:24.128Z,22.52
2022-08-22T21:19:54.357Z,21.34
2022-08-22T21:22:29.652Z,20.59
2022-08-22T21:25:00.262Z,20.85
2022-08-22T21:27:32.612Z,20.84
2022-08-22T21:30:04.065Z,20.58
2022-08-22T21:32:38.659Z,21.18
2022-08-22T21:35:21.744Z,21.56
2022-08-22T21:37:51.200Z,21.85
2022-08-22T21:40:25.218Z,21.62
2022-08-22T21:43:06.074Z,21.03
2022-08-22T21:45:37.152Z,20.83
2022-08-22T21:48:34.972Z,21.12
2022-08-22T21:51:23.827Z,21.56
2022-08-22T21:54:16.156Z,21.65
2022-08-22T21:56:40.723Z,21.35
2022-08-22T21:59:25.849Z,21.02
2022-08-22T22:02:31.464Z,20.23
2022-08-22T22:05:10.076Z,20.36
2022-08-22T22:07:40.575Z,20.43
2022-08-22T22:10:12.579Z,20.40
2022-08-22T22:12:47.690Z,20.00
2022-08-22T22:15:19.626Z,20.17
2022-08-22T22:17:51.398Z,20.61
2022-08-22T22:20:23.748Z,20.07
2022-08-22T22:22:52.785Z,20.48
2022-08-22T22:25:40.286Z,20.93
2022-08-22T22:28:14.562Z,20.43
2022-08-22T22:30:43.974Z,20.35
2022-08-22T22:33:13.420Z,19.98
2022-08-22T22:35:42.848Z,19.83
2022-08-22T22:38:11.652Z,19.92
2022-08-22T22:40:41.682Z,19.20
2022-08-22T22:43:11.508Z,19.47
2022-08-22T22:45:41.364Z,19.13
2022-08-22T22:48:10.740Z,19.13
2022-08-22T22:50:44.890Z,18.97
2022-08-22T22:53:19.375Z,19.19
2022-08-22T22:55:59.755Z,19.43
2022-08-22T22:58:29.742Z,19.41
2022-08-22T23:00:59.371Z,19.00
2022-08-22T23:03:28.630Z,18.91
2022-08-22T23:05:58.045Z,19.07
2022-08-22T23:08:26.881Z,19.39
2022-08-22T23:10:56.532Z,19.33
2022-08-22T23:13:24.893Z,19.42
2022-08-22T23:15:53.002Z,19.78
2022-08-22T23:18:30.507Z,19.67
2022-08-22T23:21:13.601Z,18.89
2022-08-22T23:23:43.469Z,19.04
2022-08-22T23:26:13.786Z,19.43
2022-08-22T23:28:43.655Z,19.37
2022-08-22T23:31:14.716Z,19.74
2022-08-22T23:33:43.808Z,19.64
2022-08-22T23:36:18.699Z,19.76
2022-08-22T23:38:47.554Z,19.56
2022-08-22T23:41:19.737Z,19.22
2022-08-22T23:43:49.566Z,18.59
2022-08-22T23:46:19.616Z,18.75
2022-08-22T23:48:47.792Z,18.94
2022-08-22T23:51:18.764Z,19.35
2022-08-22T23:53:52.328Z,19.24
2022-08-22T23:56:27.311Z,19.44
2022-08-22T23:58:55.468Z,19.42
